Cascade, Iowa
Current Conditions -  °F | °C
As of 3:55 PM on Friday 24 Oct 2014 (Local Time) from KMXO Reporting Station
Overcast Overcast  
Wind Chill: 64°   Ceiling: 3500
Heat Index: 64°   Visibility: 10mi
Dew Point: 57°   Wind: 13mph
Humidity: 77%   Direction: 160°SSE
Pressure: 29.89"   Gusts: 23mph
Location:  42.3°N, 91.01°W
Report Text: KMXO 242055Z AUTO 16011G20KT 10SM OVC035 18/14 A2989 RMK AO2
Loading
Personal Weather Stations






























Interactive Weather Map
Tropical Storm Tracking
New forecast layout! Learn more

10-Day Weather Forecast

Advertisements
Track Severe Weather on mobile